Terminal Aerodrome Forecast
Issued by NWS

Home | Current Version | Previous Version | Text Only | Print | Product List | Glossary On
Versions: 1 2 3 4 5 6 7 8 9 10 11 12 13 14 15 16 17 18
000
FTUS44 KLZK 260700 AAA
TAFLLQ
TAF AMD
KLLQ 260701Z 2607/2706 VRB05KT P6SM -RA SCT005 OVC100
      TEMPO 2607/2610 5SM BR BKN005
     FM261000 18007KT 5SM BR BKN005 OVC015
     FM261400 20008KT P6SM BKN025
     FM261800 22007KT P6SM BKN050
     FM270000 17004KT P6SM BKN250=

USA.gov is the U.S. government's official web portal to all federal, state and local government web resources and services.